sensor_id;sensor_type;location;lat;lon;timestamp;P1;durP1;ratioP1;P2;durP2;ratioP2
23812;SDS011;12087;45.190;5.688;2023-11-21T00:02:26;15.43;;;11.02;;
23812;SDS011;12087;45.190;5.688;2023-11-21T00:07:49;17.45;;;11.38;;
23812;SDS011;12087;45.190;5.688;2023-11-21T00:13:12;20.38;;;12.13;;
23812;SDS011;12087;45.190;5.688;2023-11-21T00:18:34;16.40;;;10.50;;
23812;SDS011;12087;45.190;5.688;2023-11-21T00:23:57;16.13;;;9.93;;
23812;SDS011;12087;45.190;5.688;2023-11-21T00:29:19;15.52;;;10.32;;
23812;SDS011;12087;45.190;5.688;2023-11-21T00:34:42;15.73;;;11.45;;
23812;SDS011;12087;45.190;5.688;2023-11-21T00:40:06;16.35;;;10.80;;
23812;SDS011;12087;45.190;5.688;2023-11-21T00:45:29;16.60;;;10.95;;
23812;SDS011;12087;45.190;5.688;2023-11-21T00:50:51;18.00;;;10.32;;
23812;SDS011;12087;45.190;5.688;2023-11-21T00:56:15;12.15;;;9.23;;
23812;SDS011;12087;45.190;5.688;2023-11-21T01:01:37;14.80;;;8.57;;
23812;SDS011;12087;45.190;5.688;2023-11-21T01:06:59;18.02;;;9.57;;
23812;SDS011;12087;45.190;5.688;2023-11-21T01:12:23;18.67;;;12.23;;
23812;SDS011;12087;45.190;5.688;2023-11-21T01:17:46;16.83;;;12.43;;
23812;SDS011;12087;45.190;5.688;2023-11-21T01:23:08;18.65;;;13.68;;
23812;SDS011;12087;45.190;5.688;2023-11-21T01:28:32;17.83;;;13.80;;
23812;SDS011;12087;45.190;5.688;2023-11-21T01:33:54;21.75;;;13.52;;
23812;SDS011;12087;45.190;5.688;2023-11-21T01:39:16;17.02;;;9.32;;
23812;SDS011;12087;45.190;5.688;2023-11-21T01:44:45;15.95;;;10.32;;
23812;SDS011;12087;45.190;5.688;2023-11-21T01:50:07;18.95;;;11.77;;
23812;SDS011;12087;45.190;5.688;2023-11-21T01:55:33;24.83;;;12.50;;
23812;SDS011;12087;45.190;5.688;2023-11-21T02:00:57;14.90;;;9.43;;
23812;SDS011;12087;45.190;5.688;2023-11-21T02:06:20;16.85;;;11.20;;
23812;SDS011;12087;45.190;5.688;2023-11-21T02:11:43;13.57;;;9.73;;
23812;SDS011;12087;45.190;5.688;2023-11-21T02:17:06;15.95;;;9.77;;
23812;SDS011;12087;45.190;5.688;2023-11-21T02:22:30;12.38;;;7.22;;
23812;SDS011;12087;45.190;5.688;2023-11-21T02:27:55;9.75;;;6.68;;
23812;SDS011;12087;45.190;5.688;2023-11-21T02:33:17;12.07;;;5.93;;
23812;SDS011;12087;45.190;5.688;2023-11-21T02:38:40;14.75;;;6.72;;
23812;SDS011;12087;45.190;5.688;2023-11-21T02:44:04;10.85;;;6.35;;
23812;SDS011;12087;45.190;5.688;2023-11-21T02:49:27;13.10;;;6.97;;
23812;SDS011;12087;45.190;5.688;2023-11-21T02:54:50;10.73;;;5.75;;
23812;SDS011;12087;45.190;5.688;2023-11-21T03:00:14;8.90;;;5.25;;
23812;SDS011;12087;45.190;5.688;2023-11-21T03:05:37;9.70;;;5.88;;
23812;SDS011;12087;45.190;5.688;2023-11-21T03:10:59;11.40;;;6.65;;
23812;SDS011;12087;45.190;5.688;2023-11-21T03:16:24;9.30;;;4.78;;
23812;SDS011;12087;45.190;5.688;2023-11-21T03:21:46;8.38;;;5.00;;
23812;SDS011;12087;45.190;5.688;2023-11-21T03:27:08;11.65;;;4.82;;
23812;SDS011;12087;45.190;5.688;2023-11-21T03:32:32;6.47;;;3.35;;
23812;SDS011;12087;45.190;5.688;2023-11-21T03:37:55;7.03;;;3.28;;
23812;SDS011;12087;45.190;5.688;2023-11-21T03:43:17;8.70;;;3.70;;
23812;SDS011;12087;45.190;5.688;2023-11-21T03:48:41;8.75;;;3.38;;
23812;SDS011;12087;45.190;5.688;2023-11-21T03:54:03;11.65;;;4.18;;
23812;SDS011;12087;45.190;5.688;2023-11-21T03:59:28;9.05;;;4.28;;
23812;SDS011;12087;45.190;5.688;2023-11-21T04:04:51;8.23;;;4.03;;
23812;SDS011;12087;45.190;5.688;2023-11-21T04:10:14;10.75;;;4.32;;
23812;SDS011;12087;45.190;5.688;2023-11-21T04:15:36;9.30;;;3.78;;
23812;SDS011;12087;45.190;5.688;2023-11-21T04:20:59;12.02;;;3.38;;
23812;SDS011;12087;45.190;5.688;2023-11-21T04:26:22;11.43;;;4.13;;
23812;SDS011;12087;45.190;5.688;2023-11-21T04:31:44;7.63;;;4.38;;
23812;SDS011;12087;45.190;5.688;2023-11-21T04:37:08;12.55;;;4.90;;
23812;SDS011;12087;45.190;5.688;2023-11-21T04:42:31;11.57;;;5.28;;
23812;SDS011;12087;45.190;5.688;2023-11-21T04:47:53;10.48;;;4.55;;
23812;SDS011;12087;45.190;5.688;2023-11-21T04:53:16;12.32;;;4.50;;
23812;SDS011;12087;45.190;5.688;2023-11-21T04:58:38;9.63;;;4.15;;
23812;SDS011;12087;45.190;5.688;2023-11-21T05:04:01;13.32;;;3.95;;
23812;SDS011;12087;45.190;5.688;2023-11-21T05:09:24;9.65;;;3.28;;
23812;SDS011;12087;45.190;5.688;2023-11-21T05:14:48;6.68;;;2.92;;
23812;SDS011;12087;45.190;5.688;2023-11-21T05:20:10;5.47;;;3.45;;
23812;SDS011;12087;45.190;5.688;2023-11-21T05:25:35;4.47;;;3.00;;
23812;SDS011;12087;45.190;5.688;2023-11-21T05:30:57;9.35;;;3.50;;
23812;SDS011;12087;45.190;5.688;2023-11-21T05:36:19;8.38;;;2.88;;
23812;SDS011;12087;45.190;5.688;2023-11-21T05:41:43;9.75;;;3.38;;
23812;SDS011;12087;45.190;5.688;2023-11-21T05:47:05;4.68;;;2.65;;
23812;SDS011;12087;45.190;5.688;2023-11-21T05:52:27;6.57;;;2.50;;
23812;SDS011;12087;45.190;5.688;2023-11-21T05:57:51;13.10;;;3.13;;
23812;SDS011;12087;45.190;5.688;2023-11-21T06:03:13;4.57;;;2.38;;
23812;SDS011;12087;45.190;5.688;2023-11-21T06:08:37;10.48;;;3.03;;
23812;SDS011;12087;45.190;5.688;2023-11-21T06:14:01;6.00;;;2.78;;
23812;SDS011;12087;45.190;5.688;2023-11-21T06:19:23;8.35;;;3.15;;
23812;SDS011;12087;45.190;5.688;2023-11-21T06:24:45;9.57;;;2.55;;
23812;SDS011;12087;45.190;5.688;2023-11-21T06:30:09;4.22;;;1.95;;
23812;SDS011;12087;45.190;5.688;2023-11-21T06:35:33;8.40;;;2.65;;
23812;SDS011;12087;45.190;5.688;2023-11-21T06:40:56;7.72;;;2.50;;
23812;SDS011;12087;45.190;5.688;2023-11-21T06:46:19;6.15;;;2.50;;
23812;SDS011;12087;45.190;5.688;2023-11-21T06:51:42;6.90;;;2.53;;
23812;SDS011;12087;45.190;5.688;2023-11-21T06:57:04;5.15;;;3.42;;
23812;SDS011;12087;45.190;5.688;2023-11-21T07:02:27;10.63;;;2.78;;
23812;SDS011;12087;45.190;5.688;2023-11-21T07:07:49;7.53;;;2.88;;
23812;SDS011;12087;45.190;5.688;2023-11-21T07:13:14;10.88;;;2.55;;
23812;SDS011;12087;45.190;5.688;2023-11-21T07:18:37;10.88;;;2.47;;
23812;SDS011;12087;45.190;5.688;2023-11-21T07:24:00;6.85;;;2.70;;
23812;SDS011;12087;45.190;5.688;2023-11-21T07:29:23;11.90;;;2.80;;
23812;SDS011;12087;45.190;5.688;2023-11-21T07:34:47;8.52;;;2.72;;
23812;SDS011;12087;45.190;5.688;2023-11-21T07:40:09;7.70;;;3.20;;
23812;SDS011;12087;45.190;5.688;2023-11-21T07:45:32;4.80;;;2.15;;
23812;SDS011;12087;45.190;5.688;2023-11-21T07:50:55;8.18;;;2.60;;
23812;SDS011;12087;45.190;5.688;2023-11-21T07:56:18;9.93;;;2.30;;
23812;SDS011;12087;45.190;5.688;2023-11-21T08:01:40;6.32;;;2.28;;
23812;SDS011;12087;45.190;5.688;2023-11-21T08:07:04;5.25;;;2.13;;
23812;SDS011;12087;45.190;5.688;2023-11-21T08:12:26;9.48;;;2.53;;
23812;SDS011;12087;45.190;5.688;2023-11-21T08:17:50;9.18;;;3.30;;
23812;SDS011;12087;45.190;5.688;2023-11-21T08:23:18;8.23;;;2.90;;
23812;SDS011;12087;45.190;5.688;2023-11-21T08:28:40;9.75;;;2.55;;
23812;SDS011;12087;45.190;5.688;2023-11-21T08:34:02;8.68;;;3.25;;
23812;SDS011;12087;45.190;5.688;2023-11-21T08:39:26;8.63;;;3.35;;
23812;SDS011;12087;45.190;5.688;2023-11-21T08:44:48;9.68;;;4.63;;
23812;SDS011;12087;45.190;5.688;2023-11-21T08:50:11;8.43;;;3.42;;
23812;SDS011;12087;45.190;5.688;2023-11-21T08:55:35;8.98;;;3.38;;
23812;SDS011;12087;45.190;5.688;2023-11-21T09:00:57;9.13;;;3.33;;
23812;SDS011;12087;45.190;5.688;2023-11-21T09:06:19;7.28;;;3.10;;
23812;SDS011;12087;45.190;5.688;2023-11-21T09:11:43;10.23;;;3.60;;
23812;SDS011;12087;45.190;5.688;2023-11-21T09:17:06;8.20;;;3.20;;
23812;SDS011;12087;45.190;5.688;2023-11-21T09:22:31;8.88;;;3.15;;
23812;SDS011;12087;45.190;5.688;2023-11-21T09:27:54;7.22;;;3.10;;
23812;SDS011;12087;45.190;5.688;2023-11-21T09:33:17;13.38;;;3.80;;
23812;SDS011;12087;45.190;5.688;2023-11-21T09:38:40;7.03;;;3.30;;
23812;SDS011;12087;45.190;5.688;2023-11-21T09:44:04;14.60;;;3.50;;
23812;SDS011;12087;45.190;5.688;2023-11-21T09:49:31;7.30;;;3.70;;
23812;SDS011;12087;45.190;5.688;2023-11-21T09:54:55;10.65;;;3.17;;
23812;SDS011;12087;45.190;5.688;2023-11-21T10:00:20;9.77;;;3.97;;
23812;SDS011;12087;45.190;5.688;2023-11-21T10:05:44;9.38;;;3.33;;
23812;SDS011;12087;45.190;5.688;2023-11-21T10:11:07;5.78;;;2.70;;
23812;SDS011;12087;45.190;5.688;2023-11-21T10:16:33;11.13;;;3.00;;
23812;SDS011;12087;45.190;5.688;2023-11-21T10:21:57;5.40;;;2.63;;
23812;SDS011;12087;45.190;5.688;2023-11-21T10:27:22;5.00;;;2.33;;
23812;SDS011;12087;45.190;5.688;2023-11-21T10:32:46;11.63;;;3.05;;
23812;SDS011;12087;45.190;5.688;2023-11-21T10:38:08;11.73;;;3.30;;
23812;SDS011;12087;45.190;5.688;2023-11-21T10:43:31;7.05;;;2.97;;
23812;SDS011;12087;45.190;5.688;2023-11-21T10:48:54;11.90;;;3.80;;
23812;SDS011;12087;45.190;5.688;2023-11-21T10:54:17;13.68;;;3.45;;
23812;SDS011;12087;45.190;5.688;2023-11-21T10:59:42;6.47;;;3.10;;
23812;SDS011;12087;45.190;5.688;2023-11-21T11:05:10;7.20;;;2.97;;
23812;SDS011;12087;45.190;5.688;2023-11-21T11:10:32;7.45;;;2.65;;
23812;SDS011;12087;45.190;5.688;2023-11-21T11:15:57;5.93;;;2.33;;
23812;SDS011;12087;45.190;5.688;2023-11-21T11:21:26;5.50;;;2.58;;
23812;SDS011;12087;45.190;5.688;2023-11-21T11:27:01;7.55;;;2.78;;
23812;SDS011;12087;45.190;5.688;2023-11-21T11:32:35;9.25;;;2.55;;
23812;SDS011;12087;45.190;5.688;2023-11-21T11:38:06;8.73;;;2.80;;
23812;SDS011;12087;45.190;5.688;2023-11-21T11:43:29;4.13;;;2.28;;
23812;SDS011;12087;45.190;5.688;2023-11-21T11:49:02;4.50;;;2.45;;
23812;SDS011;12087;45.190;5.688;2023-11-21T11:54:35;6.38;;;3.05;;
23812;SDS011;12087;45.190;5.688;2023-11-21T12:00:08;3.00;;;1.90;;
23812;SDS011;12087;45.190;5.688;2023-11-21T12:05:38;7.57;;;2.28;;
23812;SDS011;12087;45.190;5.688;2023-11-21T12:11:06;6.00;;;1.73;;
23812;SDS011;12087;45.190;5.688;2023-11-21T12:16:32;6.03;;;1.77;;
23812;SDS011;12087;45.190;5.688;2023-11-21T12:21:54;3.80;;;1.50;;
23812;SDS011;12087;45.190;5.688;2023-11-21T12:27:18;12.10;;;6.47;;
23812;SDS011;12087;45.190;5.688;2023-11-21T12:32:42;6.15;;;1.90;;
23812;SDS011;12087;45.190;5.688;2023-11-21T12:38:06;3.47;;;2.13;;
23812;SDS011;12087;45.190;5.688;2023-11-21T12:43:31;3.70;;;1.83;;
23812;SDS011;12087;45.190;5.688;2023-11-21T12:48:55;4.30;;;1.98;;
23812;SDS011;12087;45.190;5.688;2023-11-21T12:54:18;5.03;;;2.72;;
23812;SDS011;12087;45.190;5.688;2023-11-21T12:59:44;3.40;;;1.73;;
23812;SDS011;12087;45.190;5.688;2023-11-21T13:05:07;4.00;;;2.80;;
23812;SDS011;12087;45.190;5.688;2023-11-21T13:10:39;2.67;;;1.45;;
23812;SDS011;12087;45.190;5.688;2023-11-21T13:16:05;2.58;;;1.15;;
23812;SDS011;12087;45.190;5.688;2023-11-21T13:21:28;4.65;;;3.08;;
23812;SDS011;12087;45.190;5.688;2023-11-21T13:26:50;4.55;;;1.85;;
23812;SDS011;12087;45.190;5.688;2023-11-21T13:32:14;3.67;;;1.88;;
23812;SDS011;12087;45.190;5.688;2023-11-21T13:37:38;2.22;;;1.40;;
23812;SDS011;12087;45.190;5.688;2023-11-21T13:43:00;4.65;;;2.50;;
23812;SDS011;12087;45.190;5.688;2023-11-21T13:48:26;5.05;;;3.03;;
23812;SDS011;12087;45.190;5.688;2023-11-21T13:53:54;3.03;;;1.90;;
23812;SDS011;12087;45.190;5.688;2023-11-21T13:59:17;5.07;;;2.30;;
23812;SDS011;12087;45.190;5.688;2023-11-21T14:04:44;9.15;;;5.50;;
23812;SDS011;12087;45.190;5.688;2023-11-21T14:10:16;14.35;;;9.30;;
23812;SDS011;12087;45.190;5.688;2023-11-21T14:15:42;8.23;;;4.93;;
23812;SDS011;12087;45.190;5.688;2023-11-21T14:21:07;4.00;;;3.00;;
23812;SDS011;12087;45.190;5.688;2023-11-21T14:26:30;7.20;;;4.15;;
23812;SDS011;12087;45.190;5.688;2023-11-21T14:31:53;6.78;;;5.00;;
23812;SDS011;12087;45.190;5.688;2023-11-21T14:37:18;4.38;;;3.08;;
23812;SDS011;12087;45.190;5.688;2023-11-21T14:42:41;5.22;;;3.08;;
23812;SDS011;12087;45.190;5.688;2023-11-21T14:48:07;2.95;;;1.48;;
23812;SDS011;12087;45.190;5.688;2023-11-21T14:53:37;6.38;;;2.20;;
23812;SDS011;12087;45.190;5.688;2023-11-21T14:59:13;4.53;;;1.75;;
23812;SDS011;12087;45.190;5.688;2023-11-21T15:04:36;3.25;;;1.90;;
23812;SDS011;12087;45.190;5.688;2023-11-21T15:10:00;1.80;;;1.60;;
23812;SDS011;12087;45.190;5.688;2023-11-21T15:15:23;2.00;;;1.17;;
23812;SDS011;12087;45.190;5.688;2023-11-21T15:20:45;1.80;;;1.20;;
23812;SDS011;12087;45.190;5.688;2023-11-21T15:26:09;2.00;;;1.10;;
23812;SDS011;12087;45.190;5.688;2023-11-21T15:31:31;1.92;;;1.40;;
23812;SDS011;12087;45.190;5.688;2023-11-21T15:36:54;3.40;;;2.58;;
23812;SDS011;12087;45.190;5.688;2023-11-21T15:42:17;9.52;;;5.20;;
23812;SDS011;12087;45.190;5.688;2023-11-21T15:47:40;5.65;;;2.88;;
23812;SDS011;12087;45.190;5.688;2023-11-21T15:53:02;3.03;;;2.10;;
23812;SDS011;12087;45.190;5.688;2023-11-21T15:58:26;4.60;;;2.70;;
23812;SDS011;12087;45.190;5.688;2023-11-21T16:03:49;11.70;;;7.38;;
23812;SDS011;12087;45.190;5.688;2023-11-21T16:09:11;2.58;;;1.98;;
23812;SDS011;12087;45.190;5.688;2023-11-21T16:14:44;3.75;;;2.22;;
23812;SDS011;12087;45.190;5.688;2023-11-21T16:20:08;3.65;;;1.73;;
23812;SDS011;12087;45.190;5.688;2023-11-21T16:25:32;4.85;;;2.38;;
23812;SDS011;12087;45.190;5.688;2023-11-21T16:30:57;5.05;;;2.55;;
23812;SDS011;12087;45.190;5.688;2023-11-21T16:36:19;9.45;;;5.05;;
23812;SDS011;12087;45.190;5.688;2023-11-21T16:41:42;5.85;;;3.72;;
23812;SDS011;12087;45.190;5.688;2023-11-21T16:47:06;6.35;;;3.47;;
23812;SDS011;12087;45.190;5.688;2023-11-21T16:52:28;4.93;;;2.80;;
23812;SDS011;12087;45.190;5.688;2023-11-21T16:57:51;10.05;;;4.20;;
23812;SDS011;12087;45.190;5.688;2023-11-21T17:03:15;8.32;;;3.97;;
23812;SDS011;12087;45.190;5.688;2023-11-21T17:08:37;4.72;;;3.00;;
23812;SDS011;12087;45.190;5.688;2023-11-21T17:13:59;4.07;;;2.35;;
23812;SDS011;12087;45.190;5.688;2023-11-21T17:19:24;6.65;;;3.92;;
23812;SDS011;12087;45.190;5.688;2023-11-21T17:24:51;5.40;;;3.28;;
23812;SDS011;12087;45.190;5.688;2023-11-21T17:30:14;8.48;;;4.10;;
23812;SDS011;12087;45.190;5.688;2023-11-21T17:35:40;7.47;;;4.22;;
23812;SDS011;12087;45.190;5.688;2023-11-21T17:41:07;5.70;;;3.13;;
23812;SDS011;12087;45.190;5.688;2023-11-21T17:46:31;7.97;;;3.30;;
23812;SDS011;12087;45.190;5.688;2023-11-21T17:51:57;5.00;;;3.28;;
23812;SDS011;12087;45.190;5.688;2023-11-21T17:57:19;5.13;;;2.47;;
23812;SDS011;12087;45.190;5.688;2023-11-21T18:02:41;7.85;;;4.95;;
23812;SDS011;12087;45.190;5.688;2023-11-21T18:08:05;4.72;;;2.75;;
23812;SDS011;12087;45.190;5.688;2023-11-21T18:13:27;5.03;;;3.30;;
23812;SDS011;12087;45.190;5.688;2023-11-21T18:18:49;6.95;;;3.83;;
23812;SDS011;12087;45.190;5.688;2023-11-21T18:24:13;2.80;;;2.00;;
23812;SDS011;12087;45.190;5.688;2023-11-21T18:29:36;5.38;;;3.20;;
23812;SDS011;12087;45.190;5.688;2023-11-21T18:34:58;5.57;;;2.15;;
23812;SDS011;12087;45.190;5.688;2023-11-21T18:40:22;6.30;;;1.90;;
23812;SDS011;12087;45.190;5.688;2023-11-21T18:45:44;2.13;;;1.50;;
23812;SDS011;12087;45.190;5.688;2023-11-21T18:51:07;5.82;;;2.13;;
23812;SDS011;12087;45.190;5.688;2023-11-21T18:56:31;3.45;;;1.90;;
23812;SDS011;12087;45.190;5.688;2023-11-21T19:01:53;3.38;;;1.95;;
23812;SDS011;12087;45.190;5.688;2023-11-21T19:07:15;4.35;;;2.55;;
23812;SDS011;12087;45.190;5.688;2023-11-21T19:12:40;7.45;;;3.15;;
23812;SDS011;12087;45.190;5.688;2023-11-21T19:18:03;8.98;;;3.85;;
23812;SDS011;12087;45.190;5.688;2023-11-21T19:23:25;5.32;;;3.08;;
23812;SDS011;12087;45.190;5.688;2023-11-21T19:28:49;7.75;;;2.17;;
23812;SDS011;12087;45.190;5.688;2023-11-21T19:34:11;8.65;;;2.53;;
23812;SDS011;12087;45.190;5.688;2023-11-21T19:39:33;4.00;;;2.55;;
23812;SDS011;12087;45.190;5.688;2023-11-21T19:44:57;4.75;;;3.55;;
23812;SDS011;12087;45.190;5.688;2023-11-21T19:50:19;3.58;;;2.65;;
23812;SDS011;12087;45.190;5.688;2023-11-21T19:55:41;4.88;;;2.63;;
23812;SDS011;12087;45.190;5.688;2023-11-21T20:01:05;6.30;;;3.40;;
23812;SDS011;12087;45.190;5.688;2023-11-21T20:06:31;3.35;;;2.30;;
23812;SDS011;12087;45.190;5.688;2023-11-21T20:11:59;3.42;;;2.70;;
23812;SDS011;12087;45.190;5.688;2023-11-21T20:17:27;5.70;;;2.60;;
23812;SDS011;12087;45.190;5.688;2023-11-21T20:22:50;3.28;;;2.15;;
23812;SDS011;12087;45.190;5.688;2023-11-21T20:28:12;5.88;;;1.70;;
23812;SDS011;12087;45.190;5.688;2023-11-21T20:33:37;2.42;;;1.85;;
23812;SDS011;12087;45.190;5.688;2023-11-21T20:38:59;4.60;;;2.10;;
23812;SDS011;12087;45.190;5.688;2023-11-21T20:44:21;5.75;;;1.88;;
23812;SDS011;12087;45.190;5.688;2023-11-21T20:49:45;4.10;;;1.98;;
23812;SDS011;12087;45.190;5.688;2023-11-21T20:55:07;4.18;;;2.35;;
23812;SDS011;12087;45.190;5.688;2023-11-21T21:00:30;1.98;;;1.52;;
23812;SDS011;12087;45.190;5.688;2023-11-21T21:05:54;3.25;;;2.00;;
23812;SDS011;12087;45.190;5.688;2023-11-21T21:11:16;3.35;;;2.20;;
23812;SDS011;12087;45.190;5.688;2023-11-21T21:16:40;2.90;;;1.52;;
23812;SDS011;12087;45.190;5.688;2023-11-21T21:22:04;3.58;;;1.67;;
23812;SDS011;12087;45.190;5.688;2023-11-21T21:27:26;2.25;;;1.80;;
23812;SDS011;12087;45.190;5.688;2023-11-21T21:32:48;2.13;;;1.83;;
23812;SDS011;12087;45.190;5.688;2023-11-21T21:38:12;3.65;;;1.80;;
23812;SDS011;12087;45.190;5.688;2023-11-21T21:43:34;3.88;;;1.60;;
23812;SDS011;12087;45.190;5.688;2023-11-21T21:48:57;2.13;;;1.45;;
23812;SDS011;12087;45.190;5.688;2023-11-21T21:54:20;4.00;;;2.05;;
23812;SDS011;12087;45.190;5.688;2023-11-21T21:59:43;2.70;;;1.65;;
23812;SDS011;12087;45.190;5.688;2023-11-21T22:05:09;1.60;;;1.50;;
23812;SDS011;12087;45.190;5.688;2023-11-21T22:10:33;2.63;;;1.90;;
23812;SDS011;12087;45.190;5.688;2023-11-21T22:15:56;4.45;;;2.17;;
23812;SDS011;12087;45.190;5.688;2023-11-21T22:21:19;3.28;;;2.03;;
23812;SDS011;12087;45.190;5.688;2023-11-21T22:26:43;2.97;;;1.75;;
23812;SDS011;12087;45.190;5.688;2023-11-21T22:32:05;3.42;;;1.77;;
23812;SDS011;12087;45.190;5.688;2023-11-21T22:37:28;7.13;;;2.53;;
23812;SDS011;12087;45.190;5.688;2023-11-21T22:42:51;5.88;;;2.08;;
23812;SDS011;12087;45.190;5.688;2023-11-21T22:48:13;3.22;;;2.00;;
23812;SDS011;12087;45.190;5.688;2023-11-21T22:53:36;2.65;;;2.20;;
23812;SDS011;12087;45.190;5.688;2023-11-21T22:59:01;3.20;;;2.20;;
23812;SDS011;12087;45.190;5.688;2023-11-21T23:04:24;5.70;;;2.63;;
23812;SDS011;12087;45.190;5.688;2023-11-21T23:09:46;4.70;;;2.17;;
23812;SDS011;12087;45.190;5.688;2023-11-21T23:15:10;3.58;;;2.40;;
23812;SDS011;12087;45.190;5.688;2023-11-21T23:20:32;2.75;;;2.40;;
23812;SDS011;12087;45.190;5.688;2023-11-21T23:25:55;2.28;;;1.92;;
23812;SDS011;12087;45.190;5.688;2023-11-21T23:31:19;3.28;;;2.60;;
23812;SDS011;12087;45.190;5.688;2023-11-21T23:36:42;5.07;;;2.40;;
23812;SDS011;12087;45.190;5.688;2023-11-21T23:42:05;3.28;;;2.45;;
23812;SDS011;12087;45.190;5.688;2023-11-21T23:47:29;4.40;;;2.75;;
23812;SDS011;12087;45.190;5.688;2023-11-21T23:52:51;4.05;;;2.90;;
23812;SDS011;12087;45.190;5.688;2023-11-21T23:58:14;2.95;;;2.42;;
